createdAt,value
2022-10-29T00:00:17.264Z,26.05
2022-10-29T00:03:04.683Z,23.63
2022-10-29T00:05:32.439Z,23.67
2022-10-29T00:07:59.681Z,23.75
2022-10-29T00:10:26.895Z,22.63
2022-10-29T00:12:54.323Z,26.58
2022-10-29T00:15:21.715Z,23.35
2022-10-29T00:17:48.953Z,27.50
2022-10-29T00:20:16.008Z,27.70
2022-10-29T00:22:43.148Z,30.23
2022-10-29T00:25:10.100Z,22.00
2022-10-29T00:27:37.329Z,28.35
2022-10-29T00:30:04.901Z,25.30
2022-10-29T00:32:31.986Z,26.50
2022-10-29T00:34:59.150Z,32.28
2022-10-29T00:37:26.184Z,30.45
2022-10-29T00:39:53.130Z,30.17
2022-10-29T00:42:20.385Z,27.50
2022-10-29T00:44:47.607Z,25.33
2022-10-29T00:47:19.735Z,26.10
2022-10-29T00:50:00.934Z,22.35
2022-10-29T00:52:32.548Z,24.13
2022-10-29T00:55:03.013Z,25.35
2022-10-29T00:57:36.896Z,26.70
2022-10-29T01:00:05.434Z,29.42
2022-10-29T01:02:34.954Z,26.00
2022-10-29T01:05:04.081Z,27.83
2022-10-29T01:07:31.466Z,26.88
2022-10-29T01:09:58.809Z,28.00
2022-10-29T01:13:07.174Z,31.48
2022-10-29T01:16:11.198Z,26.08
2022-10-29T01:18:54.405Z,27.50
2022-10-29T01:21:34.737Z,23.88
2022-10-29T01:24:22.516Z,26.23
2022-10-29T01:27:27.461Z,24.50
2022-10-29T01:30:04.181Z,24.60
2022-10-29T01:32:50.081Z,25.90
2022-10-29T01:35:45.306Z,31.98
2022-10-29T01:38:51.898Z,27.80
2022-10-29T01:41:48.759Z,27.15
2022-10-29T01:44:29.588Z,24.27
2022-10-29T01:47:02.677Z,32.35
2022-10-29T01:49:45.621Z,26.77
2022-10-29T01:52:15.370Z,27.50
2022-10-29T01:54:47.425Z,21.40
2022-10-29T01:57:36.500Z,24.98
2022-10-29T02:00:06.785Z,27.55
2022-10-29T02:02:57.905Z,31.35
2022-10-29T02:05:35.424Z,29.02
2022-10-29T02:08:27.169Z,25.00
2022-10-29T02:11:08.667Z,26.15
2022-10-29T02:13:44.452Z,28.10
2022-10-29T02:16:12.525Z,25.95
2022-10-29T02:18:41.816Z,22.63
2022-10-29T02:21:09.051Z,23.58
2022-10-29T02:23:36.148Z,24.15
2022-10-29T02:26:03.369Z,24.80
2022-10-29T02:28:30.345Z,25.45
2022-10-29T02:30:57.312Z,23.20
2022-10-29T02:33:24.521Z,25.25
2022-10-29T02:35:51.522Z,26.63
2022-10-29T02:38:18.545Z,24.55
2022-10-29T02:40:45.731Z,23.60
2022-10-29T02:43:12.733Z,25.77
2022-10-29T02:45:39.740Z,27.45
2022-10-29T02:48:07.070Z,22.58
2022-10-29T02:50:35.243Z,24.45
2022-10-29T02:53:02.275Z,25.33
2022-10-29T02:55:29.485Z,22.30
2022-10-29T02:57:56.714Z,31.98
2022-10-29T03:00:23.889Z,23.92
2022-10-29T03:02:54.130Z,22.38
2022-10-29T03:05:21.388Z,22.85
2022-10-29T03:07:48.343Z,25.02
2022-10-29T03:10:15.531Z,22.33
2022-10-29T03:12:42.488Z,24.58
2022-10-29T03:15:10.024Z,27.35
2022-10-29T03:17:37.439Z,20.25
2022-10-29T03:20:04.936Z,24.73
2022-10-29T03:22:31.899Z,23.73
2022-10-29T03:24:59.139Z,23.38
2022-10-29T03:27:26.125Z,29.73
2022-10-29T03:29:53.189Z,24.98
2022-10-29T03:32:20.418Z,23.58
2022-10-29T03:34:47.333Z,22.90
2022-10-29T03:37:14.292Z,33.08
2022-10-29T03:39:41.514Z,19.73
2022-10-29T03:42:08.479Z,23.27
2022-10-29T03:44:35.444Z,20.85
2022-10-29T03:47:02.637Z,18.45
2022-10-29T03:49:29.617Z,22.73
2022-10-29T03:51:56.570Z,23.20
2022-10-29T03:54:23.730Z,23.52
2022-10-29T03:56:50.675Z,20.73
2022-10-29T03:59:17.829Z,24.75
2022-10-29T04:01:44.947Z,27.80
2022-10-29T04:04:12.339Z,26.63
2022-10-29T04:06:39.401Z,21.95
2022-10-29T04:09:06.689Z,26.42
2022-10-29T04:11:33.743Z,23.25
2022-10-29T04:14:00.992Z,24.67
2022-10-29T04:16:27.955Z,26.92
2022-10-29T04:18:54.947Z,26.40
2022-10-29T04:29:43.480Z,27.05
2022-10-29T04:32:10.717Z,26.70
2022-10-29T04:34:37.818Z,22.92
2022-10-29T04:37:05.065Z,24.77
2022-10-29T04:39:32.253Z,22.08
2022-10-29T04:41:59.229Z,20.90
2022-10-29T04:44:26.223Z,20.52
2022-10-29T04:46:53.388Z,22.75
2022-10-29T04:49:20.462Z,20.02
2022-10-29T04:51:47.761Z,25.25
2022-10-29T04:54:15.619Z,23.63
2022-10-29T04:56:42.953Z,24.08
2022-10-29T04:59:10.198Z,25.15
2022-10-29T05:01:37.825Z,24.90
2022-10-29T05:04:04.910Z,26.08
2022-10-29T05:06:31.896Z,28.70
2022-10-29T05:08:59.044Z,24.17
2022-10-29T05:11:26.049Z,24.75
2022-10-29T05:13:53.332Z,25.13
2022-10-29T05:16:20.354Z,25.70
2022-10-29T05:18:47.616Z,28.42
2022-10-29T05:21:14.633Z,22.05
2022-10-29T05:23:41.806Z,20.90
2022-10-29T05:26:08.779Z,36.40
2022-10-29T05:28:35.948Z,40.35
2022-10-29T05:31:02.948Z,38.65
2022-10-29T05:33:30.175Z,37.97
2022-10-29T05:36:01.048Z,30.38
2022-10-29T05:38:28.508Z,24.50
2022-10-29T05:40:58.640Z,29.92
2022-10-29T05:43:26.148Z,28.30
2022-10-29T05:45:53.379Z,32.17
2022-10-29T05:48:20.596Z,28.13
2022-10-29T05:50:47.757Z,26.98
2022-10-29T05:53:15.323Z,27.05
2022-10-29T05:55:42.734Z,27.58
2022-10-29T05:58:12.254Z,29.20
2022-10-29T06:00:42.396Z,24.13
2022-10-29T06:03:15.796Z,23.42
2022-10-29T06:05:42.893Z,26.98
2022-10-29T06:08:10.471Z,28.23
2022-10-29T06:10:37.839Z,24.80
2022-10-29T06:13:18.055Z,23.90
2022-10-29T06:15:49.495Z,27.35
2022-10-29T06:18:17.021Z,31.38
2022-10-29T06:20:44.090Z,25.33
2022-10-29T06:23:11.790Z,25.33
2022-10-29T06:25:38.849Z,23.17
2022-10-29T06:28:12.206Z,25.50
2022-10-29T06:30:39.814Z,26.02
2022-10-29T06:33:07.732Z,24.63
2022-10-29T06:38:10.879Z,31.98
2022-10-29T06:40:39.589Z,44.15
2022-10-29T06:43:12.348Z,26.83
2022-10-29T06:45:40.188Z,41.35
2022-10-29T06:48:07.743Z,31.38
2022-10-29T06:50:34.814Z,46.05
2022-10-29T06:53:04.602Z,40.60
2022-10-29T06:55:34.306Z,26.60
2022-10-29T06:58:06.063Z,45.28
2022-10-29T07:00:34.681Z,45.67
2022-10-29T07:03:03.388Z,35.53
2022-10-29T07:05:31.001Z,31.63
2022-10-29T07:07:59.639Z,41.13
2022-10-29T07:10:30.007Z,47.63
2022-10-29T07:12:57.394Z,34.90
2022-10-29T07:15:27.585Z,31.73
2022-10-29T07:18:07.760Z,23.92
2022-10-29T07:20:37.757Z,23.90
2022-10-29T07:23:05.379Z,23.60
2022-10-29T07:25:33.866Z,29.55
2022-10-29T07:28:05.897Z,56.00
2022-10-29T07:30:33.657Z,37.78
2022-10-29T07:33:00.893Z,31.27
2022-10-29T07:35:28.053Z,32.25
2022-10-29T07:38:09.081Z,32.50
2022-10-29T07:40:38.862Z,40.47
2022-10-29T07:43:06.447Z,33.53
2022-10-29T07:45:33.877Z,29.10
2022-10-29T07:48:09.423Z,32.78
2022-10-29T07:50:38.314Z,32.95
2022-10-29T07:53:06.945Z,36.42
2022-10-29T07:55:34.298Z,38.58
2022-10-29T07:58:04.115Z,45.20
2022-10-29T08:00:33.824Z,33.80
2022-10-29T08:03:00.839Z,35.60
2022-10-29T08:05:29.397Z,40.28
2022-10-29T08:07:57.245Z,37.95
2022-10-29T08:10:25.531Z,50.35
2022-10-29T08:12:57.972Z,51.03
2022-10-29T08:15:27.210Z,52.80
2022-10-29T08:17:54.854Z,35.92
2022-10-29T08:20:23.770Z,38.58
2022-10-29T08:22:51.073Z,45.72
2022-10-29T08:25:18.930Z,35.13
2022-10-29T08:27:46.206Z,43.30
2022-10-29T08:30:14.696Z,32.25
2022-10-29T08:32:47.963Z,47.03
2022-10-29T08:35:15.522Z,32.15
2022-10-29T08:37:44.124Z,32.10
2022-10-29T08:40:47.946Z,43.25
2022-10-29T08:43:43.253Z,28.50
2022-10-29T08:46:29.377Z,25.42
2022-10-29T08:49:02.656Z,22.15
2022-10-29T08:51:38.810Z,24.65
2022-10-29T08:54:43.321Z,27.98
2022-10-29T08:57:15.012Z,25.33
2022-10-29T09:00:13.034Z,25.13
2022-10-29T09:02:40.481Z,24.80
2022-10-29T09:05:18.803Z,26.60
2022-10-29T09:08:22.042Z,24.00
2022-10-29T09:10:55.790Z,27.58
2022-10-29T09:13:31.649Z,25.60
2022-10-29T09:16:10.438Z,33.53
2022-10-29T09:19:05.518Z,27.15
2022-10-29T09:21:34.170Z,26.65
2022-10-29T09:24:09.531Z,29.75
2022-10-29T09:26:59.119Z,28.55
2022-10-29T09:29:35.161Z,29.05
2022-10-29T09:32:33.474Z,27.77
2022-10-29T09:35:14.702Z,29.83
2022-10-29T09:37:45.915Z,29.98
2022-10-29T09:40:37.111Z,24.48
2022-10-29T09:43:42.550Z,25.92
2022-10-29T09:46:31.064Z,24.35
2022-10-29T09:49:09.661Z,24.20
2022-10-29T09:51:43.596Z,32.60
2022-10-29T09:54:11.145Z,24.08
2022-10-29T09:56:43.570Z,27.65
2022-10-29T09:59:30.087Z,24.33
2022-10-29T10:01:59.125Z,18.25
2022-10-29T10:04:34.527Z,23.05
2022-10-29T10:07:16.905Z,22.73
2022-10-29T10:09:59.971Z,22.27
2022-10-29T10:12:48.185Z,21.70
2022-10-29T10:15:25.366Z,24.20
2022-10-29T10:17:57.782Z,25.98
2022-10-29T10:20:39.060Z,20.45
2022-10-29T10:23:29.598Z,18.80
2022-10-29T10:26:02.324Z,21.65
2022-10-29T10:28:36.111Z,26.80
2022-10-29T10:31:11.863Z,24.92
2022-10-29T10:33:53.735Z,19.55
2022-10-29T10:36:24.565Z,19.70
2022-10-29T10:38:55.194Z,21.77
2022-10-29T10:41:33.090Z,18.67
2022-10-29T10:44:03.445Z,18.58
2022-10-29T10:46:34.907Z,18.70
2022-10-29T10:49:14.398Z,17.60
2022-10-29T10:51:49.909Z,18.85
2022-10-29T10:54:28.075Z,20.52
2022-10-29T10:57:11.221Z,22.83
2022-10-29T11:00:13.677Z,22.20
2022-10-29T11:03:08.950Z,21.80
2022-10-29T11:05:40.539Z,19.38
2022-10-29T11:08:18.889Z,22.98
2022-10-29T11:11:17.681Z,24.50
2022-10-29T11:13:45.019Z,18.67
2022-10-29T11:16:12.262Z,20.13
2022-10-29T11:18:47.770Z,22.17
2022-10-29T11:21:24.923Z,15.95
2022-10-29T11:23:58.691Z,24.48
2022-10-29T11:26:30.466Z,17.30
2022-10-29T11:29:14.418Z,17.45
2022-10-29T11:31:48.022Z,17.92
2022-10-29T11:34:23.266Z,18.58
2022-10-29T11:37:23.033Z,23.05
2022-10-29T11:39:57.966Z,21.88
2022-10-29T11:42:26.083Z,19.08
2022-10-29T11:44:53.583Z,19.65
2022-10-29T11:47:26.663Z,22.98
2022-10-29T11:50:30.256Z,15.75
2022-10-29T11:53:11.173Z,23.67
2022-10-29T11:56:06.998Z,12.30
2022-10-29T11:58:43.945Z,16.17
2022-10-29T12:01:37.958Z,13.88
2022-10-29T12:04:29.047Z,18.33
2022-10-29T12:07:21.902Z,25.80
2022-10-29T12:10:19.749Z,16.27
2022-10-29T12:13:11.123Z,15.77
2022-10-29T12:15:52.305Z,18.73
2022-10-29T12:18:41.604Z,21.38
2022-10-29T12:21:11.461Z,17.70
2022-10-29T12:23:50.945Z,17.52
2022-10-29T12:26:44.756Z,31.02
2022-10-29T12:29:21.010Z,52.75
2022-10-29T12:31:56.315Z,51.50
2022-10-29T12:34:42.226Z,22.13
2022-10-29T12:37:18.510Z,34.85
2022-10-29T12:39:50.427Z,24.23
2022-10-29T12:42:26.872Z,13.30
2022-10-29T12:45:17.966Z,13.90
2022-10-29T12:48:00.518Z,12.82
2022-10-29T12:50:58.639Z,16.88
2022-10-29T12:53:39.820Z,14.18
2022-10-29T12:56:09.197Z,21.30
2022-10-29T12:58:53.134Z,16.27
2022-10-29T13:01:57.308Z,16.35
2022-10-29T13:04:30.368Z,24.15
2022-10-29T13:07:06.246Z,19.85
2022-10-29T13:09:36.131Z,19.38
2022-10-29T13:12:09.792Z,24.42
2022-10-29T13:15:02.074Z,14.40
2022-10-29T13:17:35.006Z,24.00
2022-10-29T13:20:22.638Z,19.95
2022-10-29T13:22:52.803Z,14.00
2022-10-29T13:25:37.945Z,20.17
2022-10-29T13:28:11.265Z,20.05
2022-10-29T13:30:46.448Z,23.27
2022-10-29T13:33:28.724Z,15.80
2022-10-29T13:36:06.654Z,22.48
2022-10-29T13:39:05.749Z,22.17
2022-10-29T13:41:44.127Z,24.58
2022-10-29T13:44:29.165Z,41.75
2022-10-29T13:47:02.759Z,29.98
2022-10-29T13:54:50.744Z,26.80
2022-10-29T13:57:34.439Z,19.73
2022-10-29T14:00:16.791Z,22.88
2022-10-29T14:02:57.704Z,29.00
2022-10-29T14:05:29.588Z,22.85
2022-10-29T14:08:17.015Z,20.65
2022-10-29T14:10:50.424Z,27.70
2022-10-29T14:13:31.704Z,33.38
2022-10-29T14:16:07.492Z,22.50
2022-10-29T14:18:40.745Z,20.42
2022-10-29T14:21:13.605Z,32.60
2022-10-29T14:23:43.427Z,24.83
2022-10-29T14:28:52.635Z,19.27
2022-10-29T14:31:26.318Z,25.88
2022-10-29T14:33:58.764Z,27.27
2022-10-29T14:36:38.541Z,25.92
2022-10-29T14:39:37.050Z,25.85
2022-10-29T14:42:20.782Z,22.92
2022-10-29T14:44:52.267Z,22.42
2022-10-29T14:47:33.791Z,25.48
2022-10-29T14:50:04.176Z,26.27
2022-10-29T14:52:31.496Z,32.50
2022-10-29T14:55:25.198Z,23.38
2022-10-29T14:58:04.339Z,23.02
2022-10-29T15:00:36.950Z,24.15
2022-10-29T15:03:07.324Z,35.80
2022-10-29T15:05:39.566Z,33.95
2022-10-29T15:08:14.781Z,27.52
2022-10-29T15:10:59.646Z,59.90
2022-10-29T15:15:58.722Z,47.13
2022-10-29T15:18:26.347Z,37.65
2022-10-29T15:20:55.605Z,24.75
2022-10-29T15:23:35.386Z,32.50
2022-10-29T15:26:03.912Z,32.75
2022-10-29T15:28:42.738Z,30.77
2022-10-29T15:31:45.926Z,43.33
2022-10-29T15:34:22.089Z,40.40
2022-10-29T15:36:56.167Z,44.72
2022-10-29T15:39:26.995Z,38.38
2022-10-29T15:41:59.466Z,50.75
2022-10-29T15:44:39.428Z,35.55
2022-10-29T15:47:28.105Z,39.70
2022-10-29T15:49:55.971Z,47.70
2022-10-29T15:52:30.730Z,40.95
2022-10-29T15:54:59.398Z,50.03
2022-10-29T15:57:26.961Z,40.05
2022-10-29T15:59:59.369Z,39.65
2022-10-29T16:02:26.954Z,49.72
2022-10-29T16:04:53.986Z,50.97
2022-10-29T16:07:21.028Z,64.90
2022-10-29T16:09:53.774Z,70.57
2022-10-29T16:12:20.866Z,51.08
2022-10-29T16:14:48.110Z,60.42
2022-10-29T16:17:20.983Z,51.85
2022-10-29T16:19:48.507Z,52.90
2022-10-29T16:22:36.399Z,52.03
2022-10-29T16:25:03.779Z,79.68
2022-10-29T16:27:32.685Z,73.38
2022-10-29T16:29:59.931Z,66.35
2022-10-29T16:32:27.429Z,45.72
2022-10-29T16:34:59.212Z,36.33
2022-10-29T16:37:26.518Z,44.33
2022-10-29T16:39:54.177Z,55.33
2022-10-29T16:42:35.568Z,59.15
2022-10-29T16:45:04.046Z,43.28
2022-10-29T16:47:31.263Z,40.15
2022-10-29T16:49:58.746Z,42.78
2022-10-29T16:52:29.525Z,58.10
2022-10-29T16:54:57.457Z,51.95
2022-10-29T16:57:25.072Z,49.75
2022-10-29T16:59:52.365Z,50.50
2022-10-29T17:02:19.453Z,55.08
2022-10-29T17:04:48.779Z,64.93
2022-10-29T17:07:18.320Z,72.60
2022-10-29T17:09:45.396Z,56.85
2022-10-29T17:12:12.496Z,56.72
2022-10-29T17:14:40.103Z,146.27
2022-10-29T17:17:07.178Z,67.25
2022-10-29T17:19:34.582Z,91.38
2022-10-29T17:22:04.218Z,67.22
2022-10-29T17:24:31.297Z,57.80
2022-10-29T17:26:58.885Z,46.63
2022-10-29T17:29:26.158Z,33.92
2022-10-29T17:31:56.635Z,45.25
2022-10-29T17:34:24.348Z,38.42
2022-10-29T17:36:53.388Z,54.22
2022-10-29T17:39:21.263Z,53.33
2022-10-29T17:41:51.173Z,50.10
2022-10-29T17:44:20.148Z,47.00
2022-10-29T17:46:47.203Z,67.20
2022-10-29T17:49:14.941Z,84.40
2022-10-29T17:51:41.893Z,77.72
2022-10-29T17:54:09.419Z,63.40
2022-10-29T17:56:36.693Z,49.75
2022-10-29T17:59:03.884Z,65.30
2022-10-29T18:01:31.306Z,79.15
2022-10-29T18:04:06.508Z,54.45
2022-10-29T18:06:33.840Z,56.17
2022-10-29T18:09:01.264Z,64.43
2022-10-29T18:11:28.867Z,75.20
2022-10-29T18:13:57.164Z,79.05
2022-10-29T18:16:26.588Z,77.63
2022-10-29T18:19:02.247Z,65.13
2022-10-29T18:21:31.019Z,76.10
2022-10-29T18:23:58.744Z,79.13
2022-10-29T18:26:30.827Z,68.68
2022-10-29T18:29:00.326Z,69.82
2022-10-29T18:31:30.587Z,72.95
2022-10-29T18:33:59.656Z,59.38
2022-10-29T18:36:27.447Z,67.18
2022-10-29T18:38:56.310Z,66.55
2022-10-29T18:41:24.177Z,60.13
2022-10-29T18:43:51.995Z,59.58
2022-10-29T18:46:19.941Z,66.25
2022-10-29T18:48:48.001Z,78.88
2022-10-29T18:51:24.357Z,88.15
2022-10-29T18:53:53.503Z,66.70
2022-10-29T18:56:22.469Z,64.20
2022-10-29T18:58:50.323Z,72.60
2022-10-29T19:01:24.586Z,71.15
2022-10-29T19:03:57.089Z,72.53
2022-10-29T19:06:26.783Z,119.88
2022-10-29T19:08:54.437Z,74.10
2022-10-29T19:11:26.196Z,67.40
2022-10-29T19:13:56.021Z,54.78
2022-10-29T19:16:24.262Z,62.63
2022-10-29T19:18:56.470Z,69.85
2022-10-29T19:21:24.192Z,65.60
2022-10-29T19:24:00.234Z,57.47
2022-10-29T19:26:29.507Z,73.03
2022-10-29T19:29:00.348Z,60.47
2022-10-29T19:31:29.689Z,55.92
2022-10-29T19:34:02.065Z,45.60
2022-10-29T19:36:31.121Z,41.35
2022-10-29T19:39:00.458Z,45.20
2022-10-29T19:41:27.743Z,40.80
2022-10-29T19:43:57.922Z,34.10
2022-10-29T19:46:25.279Z,32.55
2022-10-29T19:48:54.171Z,32.05
2022-10-29T19:51:22.230Z,36.72
2022-10-29T19:53:53.253Z,36.05
2022-10-29T19:56:21.620Z,34.97
2022-10-29T19:58:49.109Z,37.28
2022-10-29T20:01:18.703Z,33.85
2022-10-29T20:03:47.016Z,37.45
2022-10-29T20:06:14.896Z,36.42
2022-10-29T20:08:42.058Z,48.85
2022-10-29T20:11:09.540Z,32.40
2022-10-29T20:13:39.748Z,65.43
2022-10-29T20:16:13.479Z,74.78
2022-10-29T20:18:40.528Z,53.70
2022-10-29T20:21:08.403Z,48.33
2022-10-29T20:23:36.170Z,47.75
2022-10-29T20:26:03.542Z,42.53
2022-10-29T20:28:30.849Z,31.17
2022-10-29T20:31:12.290Z,58.03
2022-10-29T20:33:39.602Z,48.28
2022-10-29T20:36:06.917Z,31.48
2022-10-29T20:38:34.444Z,39.05
2022-10-29T20:41:01.477Z,38.63
2022-10-29T20:43:28.645Z,33.10
2022-10-29T20:46:03.268Z,30.38
2022-10-29T20:48:30.547Z,39.08
2022-10-29T20:50:57.694Z,38.70
2022-10-29T20:53:24.730Z,33.80
2022-10-29T20:55:52.099Z,24.80
2022-10-29T20:58:21.136Z,29.73
2022-10-29T21:00:49.017Z,33.65
2022-10-29T21:03:17.963Z,30.05
2022-10-29T21:05:45.091Z,25.85
2022-10-29T21:08:12.247Z,28.40
2022-10-29T21:10:39.466Z,32.25
2022-10-29T21:13:06.606Z,32.35
2022-10-29T21:15:36.764Z,33.13
2022-10-29T21:18:04.340Z,47.33
2022-10-29T21:20:32.659Z,49.13
2022-10-29T21:23:00.305Z,46.75
2022-10-29T21:25:27.571Z,45.08
2022-10-29T21:27:55.792Z,47.40
2022-10-29T21:30:23.251Z,50.05
2022-10-29T21:32:50.369Z,111.13
2022-10-29T21:35:17.556Z,82.88
2022-10-29T21:37:44.987Z,76.85
2022-10-29T21:40:12.427Z,74.65
2022-10-29T21:42:40.120Z,81.47
2022-10-29T21:45:07.947Z,122.65
2022-10-29T21:47:34.986Z,118.97
2022-10-29T21:50:02.093Z,112.57
2022-10-29T21:52:29.284Z,82.70
2022-10-29T21:54:56.242Z,61.55
2022-10-29T21:57:23.238Z,48.40
2022-10-29T21:59:50.572Z,53.17
2022-10-29T22:02:17.761Z,47.33
2022-10-29T22:04:44.791Z,45.22
2022-10-29T22:07:11.989Z,43.72
2022-10-29T22:09:38.961Z,41.08
2022-10-29T22:12:06.241Z,35.88
2022-10-29T22:14:33.621Z,48.22
2022-10-29T22:17:00.608Z,51.95
2022-10-29T22:19:27.660Z,54.30
2022-10-29T22:21:55.941Z,55.13
2022-10-29T22:24:22.934Z,51.55
2022-10-29T22:26:49.929Z,48.92
2022-10-29T22:29:17.190Z,61.97
2022-10-29T22:31:44.221Z,68.88
2022-10-29T22:34:11.268Z,59.83
2022-10-29T22:36:39.592Z,49.20
2022-10-29T22:39:06.630Z,48.72
2022-10-29T22:41:33.677Z,59.00
2022-10-29T22:44:01.199Z,51.33
2022-10-29T22:46:29.731Z,41.95
2022-10-29T22:48:57.634Z,48.53
2022-10-29T22:51:27.070Z,48.78
2022-10-29T22:53:54.652Z,38.28
2022-10-29T22:56:33.470Z,48.50
2022-10-29T22:59:01.091Z,52.88
2022-10-29T23:01:37.320Z,47.50
2022-10-29T23:04:07.725Z,33.28
2022-10-29T23:06:34.836Z,44.28
2022-10-29T23:09:01.877Z,38.08
2022-10-29T23:11:32.162Z,41.80
2022-10-29T23:14:01.542Z,34.08
2022-10-29T23:16:30.780Z,33.92
2022-10-29T23:19:01.149Z,32.08
2022-10-29T23:21:28.743Z,33.90
2022-10-29T23:23:56.493Z,33.03
2022-10-29T23:26:25.168Z,40.17
2022-10-29T23:28:52.194Z,81.70
2022-10-29T23:31:21.531Z,56.47
2022-10-29T23:33:51.169Z,44.95
2022-10-29T23:36:19.574Z,48.03
2022-10-29T23:38:46.723Z,38.85
2022-10-29T23:41:14.332Z,36.28
2022-10-29T23:43:41.575Z,29.67
2022-10-29T23:46:08.587Z,30.60
2022-10-29T23:48:35.766Z,30.80
2022-10-29T23:51:02.744Z,35.83
2022-10-29T23:53:29.710Z,28.98
2022-10-29T23:55:57.313Z,44.03
2022-10-29T23:58:24.525Z,44.75
